createdAt,value
2023-12-05T00:33:49.309Z,25.30
2023-12-05T00:36:16.323Z,27.55
2023-12-05T00:38:44.687Z,23.70
2023-12-05T00:41:12.688Z,27.27
2023-12-05T00:43:40.849Z,23.23
2023-12-05T00:46:09.007Z,28.67
2023-12-05T00:48:37.281Z,27.35
2023-12-05T00:51:05.813Z,32.70
2023-12-05T00:53:34.146Z,27.23
2023-12-05T00:56:02.159Z,25.02
2023-12-05T00:58:30.354Z,27.70
2023-12-05T01:00:58.491Z,25.77
2023-12-05T01:03:26.769Z,25.50
2023-12-05T01:05:54.970Z,23.48
2023-12-05T01:08:23.409Z,28.20
2023-12-05T01:10:52.028Z,24.00
2023-12-05T01:13:20.047Z,28.35
2023-12-05T01:15:50.402Z,25.10
2023-12-05T01:18:18.809Z,26.33
2023-12-05T01:20:47.046Z,22.70
2023-12-05T01:23:15.105Z,25.83
2023-12-05T01:25:43.418Z,22.88
2023-12-05T01:28:11.362Z,24.98
2023-12-05T01:30:39.337Z,24.17
2023-12-05T01:33:07.261Z,22.40
2023-12-05T01:35:39.297Z,18.75
2023-12-05T01:38:07.174Z,21.13
2023-12-05T01:40:35.308Z,19.75
2023-12-05T01:43:03.247Z,20.10
2023-12-05T01:45:31.493Z,20.27
2023-12-05T01:47:59.698Z,21.73
2023-12-05T01:50:30.696Z,22.48
2023-12-05T01:53:04.424Z,21.58
2023-12-05T01:55:33.311Z,16.67
2023-12-05T01:58:02.150Z,19.45
2023-12-05T02:00:30.589Z,21.33
2023-12-05T02:02:59.329Z,17.27
2023-12-05T02:05:28.159Z,17.95
2023-12-05T02:07:56.604Z,19.90
2023-12-05T02:10:24.982Z,20.52
2023-12-05T02:12:53.352Z,25.13
2023-12-05T02:15:21.792Z,22.55
2023-12-05T02:17:57.957Z,23.52
2023-12-05T02:20:35.399Z,22.73
2023-12-05T02:23:41.213Z,24.35
2023-12-05T02:26:30.055Z,21.45
2023-12-05T02:28:58.335Z,24.33
2023-12-05T02:31:26.570Z,26.98
2023-12-05T02:33:55.470Z,28.92
2023-12-05T02:36:50.358Z,23.50
2023-12-05T02:39:42.501Z,24.50
2023-12-05T02:42:13.288Z,20.27
2023-12-05T02:44:49.336Z,23.90
2023-12-05T02:47:20.975Z,22.13
2023-12-05T02:49:49.105Z,26.33
2023-12-05T02:52:17.875Z,26.65
2023-12-05T02:54:46.616Z,29.48
2023-12-05T02:57:15.021Z,29.73
2023-12-05T02:59:43.101Z,27.30
2023-12-05T03:02:12.730Z,27.75
2023-12-05T03:04:40.974Z,26.70
2023-12-05T03:07:09.035Z,27.02
2023-12-05T03:09:37.782Z,25.95
2023-12-05T03:12:05.996Z,23.45
2023-12-05T03:14:34.311Z,19.33
2023-12-05T03:17:02.628Z,22.33
2023-12-05T03:19:31.602Z,27.08
2023-12-05T03:21:59.872Z,22.67
2023-12-05T03:24:28.176Z,19.80
2023-12-05T03:26:56.506Z,26.48
2023-12-05T03:29:24.473Z,23.73
2023-12-05T03:31:52.500Z,23.67
2023-12-05T03:34:20.623Z,22.42
2023-12-05T03:36:48.429Z,23.70
2023-12-05T03:39:16.672Z,25.25
2023-12-05T03:41:45.999Z,23.25
2023-12-05T03:44:14.371Z,21.95
2023-12-05T03:46:42.645Z,18.55
2023-12-05T03:49:10.932Z,23.25
2023-12-05T03:51:38.917Z,20.92
2023-12-05T03:54:07.443Z,19.92
2023-12-05T03:56:35.641Z,20.75
2023-12-05T03:59:06.199Z,21.63
2023-12-05T04:01:34.196Z,16.65
2023-12-05T04:04:02.568Z,17.50
2023-12-05T04:06:30.733Z,20.67
2023-12-05T04:08:58.909Z,20.40
2023-12-05T04:11:32.200Z,23.30
2023-12-05T04:14:01.364Z,22.05
2023-12-05T04:16:29.737Z,25.15
2023-12-05T04:18:58.198Z,19.75
2023-12-05T04:21:27.949Z,23.33
2023-12-05T04:23:56.251Z,19.40
2023-12-05T04:28:53.382Z,22.98
2023-12-05T04:31:21.609Z,25.95
2023-12-05T04:33:49.718Z,18.17
2023-12-05T04:36:17.840Z,19.70
2023-12-05T04:38:45.691Z,22.02
2023-12-05T04:41:14.262Z,21.42
2023-12-05T04:43:42.439Z,24.05
2023-12-05T04:46:12.247Z,23.95
2023-12-05T04:48:40.658Z,27.70
2023-12-05T04:51:08.927Z,22.02
2023-12-05T04:53:37.017Z,24.27
2023-12-05T04:56:05.573Z,22.77
2023-12-05T04:58:34.893Z,22.60
2023-12-05T05:01:02.922Z,22.55
2023-12-05T05:03:31.282Z,20.50
2023-12-05T05:05:59.482Z,21.20
2023-12-05T05:08:26.483Z,19.10
2023-12-05T05:10:54.918Z,23.55
2023-12-05T05:13:22.773Z,23.83
2023-12-05T05:15:51.050Z,21.67
2023-12-05T05:18:21.553Z,23.50
2023-12-05T05:20:49.771Z,23.35
2023-12-05T05:23:18.132Z,28.45
2023-12-05T05:25:48.968Z,31.85
2023-12-05T05:28:17.533Z,23.38
2023-12-05T05:30:45.821Z,24.67
2023-12-05T05:33:14.645Z,26.52
2023-12-05T05:35:43.252Z,23.42
2023-12-05T05:38:10.851Z,23.02
2023-12-05T05:40:41.269Z,22.02
2023-12-05T05:43:10.255Z,24.42
2023-12-05T05:45:41.571Z,23.67
2023-12-05T05:48:12.205Z,26.50
2023-12-05T05:50:44.562Z,43.67
2023-12-05T05:53:15.364Z,24.45
2023-12-05T05:55:43.675Z,24.20
2023-12-05T05:58:12.644Z,26.30
2023-12-05T06:00:41.279Z,22.95
2023-12-05T06:03:10.373Z,24.52
2023-12-05T06:05:38.486Z,24.10
2023-12-05T06:08:06.393Z,20.58
2023-12-05T06:10:34.430Z,25.73
2023-12-05T06:13:02.541Z,23.02
2023-12-05T06:15:30.383Z,22.60
2023-12-05T06:17:59.215Z,28.05
2023-12-05T06:20:27.397Z,25.33
2023-12-05T06:22:55.301Z,24.80
2023-12-05T06:25:23.868Z,22.92
2023-12-05T06:27:52.339Z,19.65
2023-12-05T06:30:25.031Z,25.10
2023-12-05T06:32:56.049Z,19.70
2023-12-05T06:35:24.213Z,24.58
2023-12-05T06:37:55.221Z,25.13
2023-12-05T06:40:24.435Z,21.42
2023-12-05T06:42:52.568Z,20.20
2023-12-05T06:45:21.044Z,21.13
2023-12-05T06:47:49.519Z,24.45
2023-12-05T06:50:17.898Z,23.17
2023-12-05T06:52:46.004Z,24.33
2023-12-05T06:55:14.250Z,21.80
2023-12-05T06:57:42.130Z,20.67
2023-12-05T07:00:10.676Z,20.88
2023-12-05T07:02:38.733Z,20.77
2023-12-05T07:05:07.558Z,20.48
2023-12-05T07:07:36.297Z,23.80
2023-12-05T07:10:07.943Z,22.38
2023-12-05T07:12:36.831Z,21.60
2023-12-05T07:15:05.611Z,24.33
2023-12-05T07:17:33.664Z,24.73
2023-12-05T07:20:01.817Z,26.40
2023-12-05T07:22:29.876Z,30.23
2023-12-05T07:25:01.048Z,25.35
2023-12-05T07:27:31.608Z,26.88
2023-12-05T07:29:59.579Z,30.95
2023-12-05T07:32:27.603Z,27.38
2023-12-05T07:34:55.737Z,28.13
2023-12-05T07:37:22.951Z,26.58
2023-12-05T07:39:51.365Z,24.65
2023-12-05T07:42:19.662Z,27.00
2023-12-05T07:44:47.483Z,25.40
2023-12-05T07:47:15.872Z,25.40
2023-12-05T07:49:47.356Z,26.05
2023-12-05T07:52:15.861Z,25.48
2023-12-05T07:54:42.963Z,25.17
2023-12-05T07:57:11.265Z,27.60
2023-12-05T07:59:39.664Z,27.30
2023-12-05T08:02:08.542Z,25.20
2023-12-05T08:04:38.001Z,24.70
2023-12-05T08:07:06.896Z,26.70
2023-12-05T08:09:37.694Z,23.47
2023-12-05T08:12:06.206Z,27.70
2023-12-05T08:14:33.506Z,26.50
2023-12-05T08:17:01.714Z,25.17
2023-12-05T08:19:28.575Z,25.17
2023-12-05T08:21:56.992Z,23.60
2023-12-05T08:24:25.667Z,26.23
2023-12-05T08:26:53.686Z,30.90
2023-12-05T08:29:23.083Z,22.93
2023-12-05T08:31:53.445Z,27.07
2023-12-05T08:34:20.525Z,24.30
2023-12-05T08:36:48.726Z,30.07
2023-12-05T08:39:16.660Z,32.40
2023-12-05T08:41:44.539Z,27.83
2023-12-05T08:44:12.765Z,26.10
2023-12-05T08:46:41.038Z,30.40
2023-12-05T08:49:09.157Z,27.83
2023-12-05T08:51:37.453Z,29.83
2023-12-05T08:54:05.366Z,30.57
2023-12-05T08:56:33.959Z,34.63
2023-12-05T08:59:00.896Z,29.90
2023-12-05T09:01:29.886Z,28.83
2023-12-05T09:03:58.131Z,33.57
2023-12-05T09:06:26.604Z,31.87
2023-12-05T09:08:56.518Z,32.17
2023-12-05T09:11:25.031Z,32.75
2023-12-05T09:13:53.312Z,29.40
2023-12-05T09:16:21.874Z,32.07
2023-12-05T09:18:52.259Z,28.17
2023-12-05T09:21:20.375Z,27.80
2023-12-05T09:23:49.197Z,27.10
2023-12-05T09:26:17.427Z,29.90
2023-12-05T09:28:46.051Z,31.27
2023-12-05T09:31:14.288Z,28.17
2023-12-05T09:33:42.619Z,30.60
2023-12-05T09:36:12.303Z,29.40
2023-12-05T09:38:40.595Z,28.33
2023-12-05T09:41:09.263Z,29.00
2023-12-05T09:43:41.414Z,28.30
2023-12-05T09:46:11.066Z,31.13
2023-12-05T09:48:49.392Z,26.00
2023-12-05T09:51:20.362Z,26.57
2023-12-05T09:53:50.013Z,24.17
2023-12-05T09:56:19.772Z,25.47
2023-12-05T09:58:48.946Z,27.75
2023-12-05T10:01:18.821Z,27.00
2023-12-05T10:03:55.122Z,25.10
2023-12-05T10:06:28.295Z,23.47
2023-12-05T10:08:58.337Z,25.63
2023-12-05T10:11:29.198Z,25.30
2023-12-05T10:13:59.035Z,22.90
2023-12-05T10:16:28.917Z,23.33
2023-12-05T10:18:58.678Z,24.50
2023-12-05T10:21:29.893Z,22.03
2023-12-05T10:23:58.699Z,22.57
2023-12-05T10:26:27.143Z,22.57
2023-12-05T10:28:57.110Z,23.97
2023-12-05T10:31:25.655Z,22.50
2023-12-05T10:34:16.928Z,21.97
2023-12-05T10:37:06.912Z,23.47
2023-12-05T10:39:37.722Z,24.67
2023-12-05T10:42:06.028Z,22.33
2023-12-05T10:44:43.220Z,19.27
2023-12-05T10:47:17.124Z,18.63
2023-12-05T10:49:46.831Z,22.90
2023-12-05T10:52:15.896Z,21.00
2023-12-05T10:54:45.945Z,21.53
2023-12-05T10:57:14.151Z,21.58
2023-12-05T10:59:42.327Z,19.67
2023-12-05T11:02:16.695Z,19.67
2023-12-05T11:04:45.011Z,19.53
2023-12-05T11:07:13.582Z,20.73
2023-12-05T11:09:45.145Z,16.37
2023-12-05T11:12:17.491Z,19.70
2023-12-05T11:14:49.559Z,20.67
2023-12-05T11:17:23.680Z,18.70
2023-12-05T11:20:33.184Z,18.83
2023-12-05T11:23:25.115Z,16.37
2023-12-05T11:26:10.437Z,16.63
2023-12-05T11:29:24.957Z,14.00
2023-12-05T11:32:29.409Z,11.27
2023-12-05T11:35:41.981Z,11.47
2023-12-05T11:38:16.908Z,12.33
2023-12-05T11:41:13.997Z,11.67
2023-12-05T11:43:45.837Z,13.30
2023-12-05T11:46:18.691Z,13.40
2023-12-05T11:48:47.040Z,12.87
2023-12-05T11:51:16.921Z,11.07
2023-12-05T11:53:45.025Z,23.85
2023-12-05T11:56:22.597Z,12.83
2023-12-05T11:58:50.782Z,17.87
2023-12-05T12:01:19.427Z,16.53
2023-12-05T12:03:57.533Z,13.17
2023-12-05T12:06:26.713Z,13.93
2023-12-05T12:08:56.552Z,14.40
2023-12-05T12:11:25.387Z,11.77
2023-12-05T12:13:52.827Z,11.53
2023-12-05T12:16:22.233Z,12.27
2023-12-05T12:18:54.319Z,10.87
2023-12-05T12:21:32.116Z,11.63
2023-12-05T12:24:00.665Z,12.97
2023-12-05T12:26:33.607Z,11.70
2023-12-05T12:29:11.431Z,10.27
2023-12-05T12:31:39.590Z,11.60
2023-12-05T12:34:09.688Z,13.73
2023-12-05T12:36:40.872Z,15.38
2023-12-05T12:39:11.174Z,12.77
2023-12-05T12:41:40.271Z,13.35
2023-12-05T12:44:10.382Z,12.20
2023-12-05T12:46:38.630Z,13.18
2023-12-05T12:49:08.135Z,14.90
2023-12-05T12:51:40.094Z,12.23
2023-12-05T12:54:10.468Z,14.13
2023-12-05T12:56:41.737Z,13.63
2023-12-05T12:59:12.203Z,14.07
2023-12-05T13:01:41.766Z,12.43
2023-12-05T13:04:15.533Z,15.17
2023-12-05T13:06:48.377Z,17.67
2023-12-05T13:09:20.932Z,16.07
2023-12-05T13:11:52.396Z,15.07
2023-12-05T13:14:23.238Z,13.63
2023-12-05T13:16:51.729Z,14.93
2023-12-05T13:19:37.537Z,15.97
2023-12-05T13:22:05.653Z,16.10
2023-12-05T13:24:33.977Z,11.80
2023-12-05T13:27:04.499Z,14.53
2023-12-05T13:29:32.895Z,13.35
2023-12-05T13:32:01.064Z,15.73
2023-12-05T13:34:28.116Z,11.17
2023-12-05T13:36:56.485Z,13.03
2023-12-05T13:39:27.132Z,12.03
2023-12-05T13:44:24.657Z,12.37
2023-12-05T13:46:56.451Z,12.77
2023-12-05T13:49:25.516Z,13.20
2023-12-05T13:51:55.326Z,14.87
2023-12-05T13:54:24.025Z,12.27
2023-12-05T13:56:52.699Z,14.50
2023-12-05T13:59:20.967Z,14.70
2023-12-05T14:01:49.319Z,18.97
2023-12-05T14:04:19.195Z,15.03
2023-12-05T14:06:47.833Z,16.02
2023-12-05T14:09:16.776Z,18.60
2023-12-05T14:11:45.466Z,15.43
2023-12-05T14:14:15.733Z,16.27
2023-12-05T14:16:44.055Z,15.43
2023-12-05T14:19:12.278Z,15.60
2023-12-05T14:21:39.898Z,14.13
2023-12-05T14:24:08.102Z,18.67
2023-12-05T14:26:38.498Z,18.67
2023-12-05T14:29:06.819Z,19.23
2023-12-05T14:31:35.393Z,21.53
2023-12-05T14:34:09.163Z,24.70
2023-12-05T14:36:37.058Z,27.07
2023-12-05T14:39:10.794Z,29.97
2023-12-05T14:41:39.881Z,24.97
2023-12-05T14:44:08.207Z,20.33
2023-12-05T14:46:37.785Z,20.73
2023-12-05T14:49:08.799Z,27.27
2023-12-05T14:51:48.272Z,18.60
2023-12-05T14:54:17.001Z,17.60
2023-12-05T14:56:47.305Z,16.03
2023-12-05T14:59:23.461Z,22.83
2023-12-05T15:41:35.199Z,22.27
2023-12-05T15:44:05.896Z,22.92
2023-12-05T15:49:05.439Z,16.85
2023-12-05T15:51:40.159Z,20.65
2023-12-05T15:54:07.566Z,23.83
2023-12-05T15:56:37.843Z,22.70
2023-12-05T15:59:05.741Z,22.55
2023-12-05T16:01:34.512Z,21.85
2023-12-05T16:04:04.666Z,20.55
2023-12-05T16:06:32.552Z,13.87
2023-12-05T16:09:01.928Z,15.90
2023-12-05T16:11:40.540Z,19.85
2023-12-05T16:14:07.566Z,22.50
2023-12-05T16:16:34.462Z,18.92
2023-12-05T16:19:01.453Z,25.20
2023-12-05T16:21:28.538Z,22.45
2023-12-05T16:23:55.462Z,18.15
2023-12-05T16:26:22.351Z,23.65
2023-12-05T16:28:50.092Z,18.45
2023-12-05T16:31:17.617Z,26.67
2023-12-05T16:33:44.669Z,36.58
2023-12-05T16:36:11.717Z,31.23
2023-12-05T16:38:38.675Z,26.58
2023-12-05T16:41:05.831Z,24.77
2023-12-05T16:43:33.381Z,27.30
2023-12-05T16:46:00.655Z,30.55
2023-12-05T16:48:27.745Z,36.17
2023-12-05T16:50:56.064Z,27.33
2023-12-05T16:53:22.923Z,22.45
2023-12-05T16:55:49.863Z,28.40
2023-12-05T16:58:20.270Z,27.38
2023-12-05T17:00:47.997Z,18.58
2023-12-05T17:03:15.898Z,30.23
2023-12-05T17:05:43.070Z,27.10
2023-12-05T17:08:12.986Z,28.17
2023-12-05T17:10:43.119Z,30.77
2023-12-05T17:13:15.548Z,25.73
2023-12-05T17:15:43.537Z,26.63
2023-12-05T17:18:14.271Z,33.50
2023-12-05T17:20:42.960Z,30.42
2023-12-05T17:25:39.398Z,31.15
2023-12-05T17:28:07.661Z,32.25
2023-12-05T17:30:36.951Z,31.15
2023-12-05T17:35:54.804Z,36.25
2023-12-05T17:38:24.167Z,33.30
2023-12-05T17:40:52.211Z,28.30
2023-12-05T17:43:21.113Z,32.63
2023-12-05T17:45:49.722Z,29.77
2023-12-05T17:48:18.186Z,32.15
2023-12-05T17:50:52.160Z,37.15
2023-12-05T17:53:23.565Z,34.15
2023-12-05T17:55:57.702Z,31.23
2023-12-05T17:58:24.670Z,30.35
2023-12-05T18:00:53.341Z,35.05
2023-12-05T18:03:24.374Z,30.75
2023-12-05T18:05:53.300Z,26.83
2023-12-05T18:08:29.337Z,26.17
2023-12-05T18:10:59.282Z,23.05
2023-12-05T18:13:27.761Z,26.48
2023-12-05T18:15:55.837Z,30.58
2023-12-05T18:18:24.768Z,24.70
2023-12-05T18:20:52.926Z,29.20
2023-12-05T18:23:20.867Z,31.77
2023-12-05T18:25:49.246Z,28.27
2023-12-05T18:28:17.794Z,32.55
2023-12-05T18:30:45.879Z,32.40
2023-12-05T18:33:14.374Z,34.60
2023-12-05T18:35:43.463Z,31.48
2023-12-05T18:38:11.125Z,29.83
2023-12-05T18:40:39.121Z,35.38
2023-12-05T18:43:08.909Z,26.90
2023-12-05T18:45:37.453Z,34.10
2023-12-05T18:48:07.259Z,34.67
2023-12-05T18:50:38.712Z,31.88
2023-12-05T18:55:34.903Z,32.67
2023-12-05T18:58:07.739Z,36.45
2023-12-05T19:00:37.026Z,33.78
2023-12-05T19:03:08.761Z,28.35
2023-12-05T19:05:37.633Z,33.05
2023-12-05T19:08:07.265Z,31.25
2023-12-05T19:10:35.565Z,35.80
2023-12-05T19:13:03.893Z,34.63
2023-12-05T19:15:32.147Z,44.95
2023-12-05T19:18:07.479Z,43.75
2023-12-05T19:20:38.002Z,42.80
2023-12-05T19:23:08.139Z,47.33
2023-12-05T19:25:36.297Z,53.42
2023-12-05T19:28:05.947Z,40.47
2023-12-05T19:30:34.327Z,35.38
2023-12-05T19:33:04.114Z,36.45
2023-12-05T19:35:34.913Z,38.25
2023-12-05T19:38:05.757Z,26.33
2023-12-05T19:40:35.366Z,37.35
2023-12-05T19:43:09.405Z,30.58
2023-12-05T19:45:39.494Z,33.83
2023-12-05T19:48:13.429Z,34.20
2023-12-05T19:50:42.224Z,34.30
2023-12-05T19:53:10.259Z,32.90
2023-12-05T19:55:44.046Z,33.80
2023-12-05T19:58:20.172Z,35.35
2023-12-05T20:00:49.524Z,34.45
2023-12-05T20:03:23.138Z,33.78
2023-12-05T20:05:51.272Z,28.15
2023-12-05T20:08:18.295Z,35.22
2023-12-05T20:10:47.004Z,37.53
2023-12-05T20:13:17.659Z,28.83
2023-12-05T20:15:45.689Z,30.20
2023-12-05T20:18:13.654Z,30.60
2023-12-05T20:20:42.930Z,35.58
2023-12-05T20:23:11.184Z,31.15
2023-12-05T20:25:39.135Z,30.60
2023-12-05T20:28:08.332Z,31.00
2023-12-05T20:30:39.249Z,34.00
2023-12-05T20:33:07.696Z,32.90
2023-12-05T20:35:35.834Z,33.63
2023-12-05T20:38:04.524Z,33.55
2023-12-05T20:40:34.639Z,38.05
2023-12-05T20:43:02.652Z,33.63
2023-12-05T20:45:31.109Z,40.92
2023-12-05T20:47:59.501Z,31.92
2023-12-05T20:50:31.387Z,35.40
2023-12-05T20:53:04.002Z,34.10
2023-12-05T20:55:35.192Z,36.45
2023-12-05T20:58:03.474Z,41.40
2023-12-05T21:00:30.429Z,40.47
2023-12-05T21:02:59.888Z,38.60
2023-12-05T21:05:27.841Z,41.28
2023-12-05T21:07:56.144Z,43.22
2023-12-05T21:10:24.624Z,42.28
2023-12-05T21:12:53.065Z,38.30
2023-12-05T21:15:21.109Z,44.03
2023-12-05T21:17:51.590Z,44.65
2023-12-05T21:20:23.187Z,40.03
2023-12-05T21:22:54.369Z,38.08
2023-12-05T21:25:22.430Z,38.42
2023-12-05T21:27:51.672Z,32.65
2023-12-05T21:30:20.241Z,40.67
2023-12-05T21:32:48.287Z,46.30
2023-12-05T21:35:18.333Z,42.45
2023-12-05T21:37:50.101Z,40.00
2023-12-05T21:40:18.457Z,39.33
2023-12-05T21:42:49.323Z,52.63
2023-12-05T21:45:18.697Z,43.55
2023-12-05T21:47:50.273Z,42.58
2023-12-05T21:50:17.415Z,43.30
2023-12-05T21:52:44.345Z,39.38
2023-12-05T21:55:12.531Z,44.20
2023-12-05T21:57:39.390Z,37.92
2023-12-05T22:00:08.641Z,42.47
2023-12-05T22:02:35.528Z,45.67
2023-12-05T22:05:04.585Z,53.97
2023-12-05T22:07:33.434Z,40.47
2023-12-05T22:10:01.807Z,37.80
2023-12-05T22:12:28.656Z,43.75
2023-12-05T22:14:58.520Z,46.90
2023-12-05T22:17:26.600Z,44.28
2023-12-05T22:19:56.035Z,47.45
2023-12-05T22:22:25.016Z,40.78
2023-12-05T22:24:55.374Z,45.03
2023-12-05T22:27:24.654Z,48.57
2023-12-05T22:29:53.228Z,45.65
2023-12-05T22:32:22.470Z,45.47
2023-12-05T22:34:53.038Z,47.83
2023-12-05T22:37:23.643Z,40.17
2023-12-05T22:39:55.084Z,44.28
2023-12-05T22:42:24.153Z,47.78
2023-12-05T22:44:54.442Z,41.40
2023-12-05T22:47:22.891Z,46.22
2023-12-05T22:49:51.359Z,46.85
2023-12-05T22:52:19.572Z,44.45
2023-12-05T22:54:47.748Z,45.95
2023-12-05T22:57:15.941Z,47.65
2023-12-05T22:59:45.266Z,46.08
2023-12-05T23:02:20.850Z,49.03
2023-12-05T23:04:49.013Z,44.50
2023-12-05T23:07:19.262Z,42.88
2023-12-05T23:09:48.753Z,49.08
2023-12-05T23:12:16.615Z,50.22
2023-12-05T23:14:48.575Z,50.45
2023-12-05T23:17:16.483Z,50.58
2023-12-05T23:19:44.386Z,48.70
2023-12-05T23:22:12.968Z,46.20
2023-12-05T23:24:41.543Z,42.85
2023-12-05T23:27:09.672Z,50.53
2023-12-05T23:29:37.747Z,46.78
2023-12-05T23:32:06.833Z,50.45
2023-12-05T23:34:35.237Z,51.60
2023-12-05T23:37:06.268Z,46.58
2023-12-05T23:39:34.900Z,47.90
2023-12-05T23:42:05.139Z,44.92
2023-12-05T23:44:35.854Z,48.95
2023-12-05T23:47:11.691Z,50.35
2023-12-05T23:49:39.430Z,41.13
2023-12-05T23:52:08.091Z,42.28
2023-12-05T23:54:37.362Z,48.88
2023-12-05T23:57:06.866Z,40.03
2023-12-05T23:59:44.971Z,45.53
